Time;durP1;ratioP1;P1;durP2;ratioP2;P2;SDS_P1;SDS_P2;PMS_P1;PMS_P2;Temp;Humidity;BMP_temperature;BMP_pressure;BME280_temperature;BME280_humidity;BME280_pressure;Samples;Min_cycle;Max_cycle;Signal;HPM_P1;HPM_P2
2023/12/01 00:01:00;;;;;;;0.20;0.20;;;;;;;16.12;96.96;75569.19;6250186;22;20006;-87
2023/12/01 00:03:26;;;;;;;0.20;0.20;;;;;;;16.01;96.80;75556.00;6249028;22;20061;-87
2023/12/01 00:05:51;;;;;;;0.20;0.20;;;;;;;16.09;96.25;75562.22;6248164;22;20024;-88
2023/12/01 00:08:17;;;;;;;0.20;0.20;;;;;;;16.07;96.62;75560.41;6275244;22;20432;-87
2023/12/01 00:10:42;;;;;;;0.20;0.20;;;;;;;15.97;96.80;75548.41;6248512;22;20042;-87
2023/12/01 00:13:08;;;;;;;0.20;0.20;;;;;;;16.23;96.34;75579.59;6248533;22;20030;-87
2023/12/01 00:15:33;;;;;;;0.20;0.20;;;;;;;16.23;96.60;75579.59;6248537;22;20489;-87
2023/12/01 00:17:59;;;;;;;0.20;0.20;;;;;;;16.22;97.01;75575.59;6248132;22;20012;-88
2023/12/01 00:24:06;;;;;;;0.20;0.20;;;;;;;16.64;92.67;75627.56;6294310;22;20022;-83
2023/12/01 00:26:52;;;;;;;0.20;0.20;;;;;;;16.39;95.61;75598.19;6275427;22;20111;-87
2023/12/01 00:29:22;;;;;;;0.20;0.20;;;;;;;16.07;96.08;75560.41;6276382;22;20082;-84
2023/12/01 00:32:11;;;;;;;0.20;0.20;;;;;;;16.47;97.83;75610.56;6288130;22;20018;-85
2023/12/01 00:41:22;;;;;;;0.20;0.20;;;;;;;16.32;99.88;75589.19;6295096;22;20047;-84
2023/12/01 00:43:51;;;;;;;0.20;0.20;;;;;;;16.37;99.58;75595.19;6251637;22;20035;-84
2023/12/01 00:46:17;;;;;;;0.20;0.20;;;;;;;16.13;100.00;75570.38;6248553;22;20053;-89
2023/12/01 00:48:42;;;;;;;0.20;0.20;;;;;;;16.31;100.00;75585.81;6248054;22;20092;-88
2023/12/01 00:54:35;;;;;;;0.20;0.20;;;;;;;16.12;98.04;75568.59;6281208;22;20070;-85
2023/12/01 01:03:26;;;;;;;0.20;0.20;;;;;;;16.38;95.95;75593.59;6280466;22;20018;-87
2023/12/01 01:05:52;;;;;;;0.20;0.20;;;;;;;16.31;97.12;75594.16;6222779;22;20012;-86
2023/12/01 01:08:17;;;;;;;0.20;0.20;;;;;;;16.14;97.31;75562.59;6248664;22;20008;-86
2023/12/01 01:10:43;;;;;;;0.20;0.20;;;;;;;16.24;97.74;75585.75;6248557;22;20358;-88
2023/12/01 01:13:09;;;;;;;0.20;0.20;;;;;;;16.49;96.49;75606.78;6248764;22;20015;-87
2023/12/01 01:15:35;;;;;;;0.20;0.20;;;;;;;16.10;97.33;75563.41;6248454;22;20004;-88
2023/12/01 01:18:00;;;;;;;0.20;0.20;;;;;;;16.23;97.60;75576.19;6247501;22;20087;-88
2023/12/01 01:20:26;;;;;;;0.20;0.20;;;;;;;16.04;98.30;75559.59;6247266;22;20010;-88
2023/12/01 01:22:51;;;;;;;0.20;0.20;;;;;;;16.18;98.97;75573.00;6247200;22;20007;-88
2023/12/01 01:25:17;;;;;;;0.20;0.20;;;;;;;16.23;98.93;75581.78;6247405;22;20481;-88
2023/12/01 01:27:42;;;;;;;0.20;0.20;;;;;;;16.07;99.23;75562.59;6272651;22;20019;-87
2023/12/01 01:30:08;;;;;;;0.20;0.20;;;;;;;16.15;99.85;75570.00;6247265;22;20000;-87
2023/12/01 01:32:33;;;;;;;0.20;0.20;;;;;;;16.07;100.00;75560.41;6247048;22;20003;-87
2023/12/01 01:34:59;;;;;;;0.20;0.20;;;;;;;15.97;99.90;75546.22;6247301;22;20336;-88
2023/12/01 01:37:24;;;;;;;0.20;0.20;;;;;;;16.06;98.19;75553.63;6246933;22;20007;-87
2023/12/01 01:39:49;;;;;;;0.20;0.20;;;;;;;16.00;98.65;75554.81;6247024;22;20491;-88
2023/12/01 01:42:15;;;;;;;0.20;0.20;;;;;;;16.10;97.54;75564.00;6246943;22;20030;-88
2023/12/01 01:44:40;;;;;;;0.20;0.20;;;;;;;16.18;96.73;75573.00;6247642;22;20014;-87
2023/12/01 01:47:06;;;;;;;0.20;0.20;;;;;;;16.18;97.57;75570.19;6274397;22;20011;-88
2023/12/01 01:49:32;;;;;;;0.20;0.20;;;;;;;16.03;97.68;75555.00;6272354;22;20493;-87
2023/12/01 01:51:59;;;;;;;0.20;0.20;;;;;;;16.11;96.74;75570.19;6247241;22;20029;-88
2023/12/01 01:54:25;;;;;;;0.20;0.20;;;;;;;16.18;95.63;75567.41;6247473;22;20000;-87
2023/12/01 01:56:55;;;;;;;0.20;0.20;;;;;;;15.98;93.15;75550.22;6272691;22;20011;-87
2023/12/01 01:59:22;;;;;;;0.20;0.20;;;;;;;16.17;92.68;75572.38;6274283;22;20004;-87
2023/12/01 02:01:48;;;;;;;0.20;0.20;;;;;;;16.09;93.24;75568.38;6247158;22;20003;-87
2023/12/01 02:04:14;;;;;;;0.20;0.20;;;;;;;16.22;95.17;75575.59;6246907;22;20379;-87
2023/12/01 02:06:40;;;;;;;0.20;0.20;;;;;;;16.34;96.55;75594.38;6273119;22;20004;-86
2023/12/01 02:09:08;;;;;;;0.20;0.20;;;;;;;16.15;98.25;75572.78;6247860;22;20008;-88
2023/12/01 02:11:35;;;;;;;0.20;0.20;;;;;;;16.18;99.77;75573.59;6247070;22;20321;-88
2023/12/01 02:14:01;;;;;;;0.20;0.20;;;;;;;16.44;96.99;75609.16;6273091;22;20002;-86
2023/12/01 02:16:26;;;;;;;0.20;0.20;;;;;;;16.27;97.57;75583.19;6273344;22;20336;-87
2023/12/01 02:18:54;;;;;;;0.20;0.20;;;;;;;16.21;99.30;75576.59;6247078;22;20061;-88
2023/12/01 02:21:26;;;;;;;0.20;0.20;;;;;;;16.20;100.00;75576.00;6246980;22;20412;-88
2023/12/01 02:23:55;;;;;;;0.20;0.20;;;;;;;16.41;100.00;75600.59;6272136;22;20007;-87
2023/12/01 02:26:23;;;;;;;0.20;0.20;;;;;;;16.24;100.00;75580.81;6247064;22;20122;-88
2023/12/01 02:28:49;;;;;;;0.20;0.20;;;;;;;16.33;99.34;75590.38;6247467;22;20008;-87
2023/12/01 02:31:15;;;;;;;0.20;0.20;;;;;;;16.48;97.71;75608.38;6247356;22;20006;-88
2023/12/01 02:33:40;;;;;;;0.20;0.20;;;;;;;16.54;97.79;75612.78;6272626;22;20015;-88
2023/12/01 02:36:08;;;;;;;0.20;0.20;;;;;;;16.24;99.73;75580.81;6272625;22;20000;-88
2023/12/01 02:38:34;;;;;;;0.20;0.20;;;;;;;16.29;100.00;75585.59;6272224;22;20449;-88
2023/12/01 02:41:02;;;;;;;0.20;0.20;;;;;;;16.28;100.00;75584.97;6246596;22;20075;-88
2023/12/01 02:43:28;;;;;;;0.20;0.20;;;;;;;16.32;100.00;75589.19;6246863;22;20004;-88
2023/12/01 02:45:53;;;;;;;0.20;0.20;;;;;;;16.13;100.00;75570.38;6246729;22;20010;-88
2023/12/01 02:48:19;;;;;;;0.20;0.20;;;;;;;16.09;100.00;75567.78;6246669;22;20077;-88
2023/12/01 02:50:47;;;;;;;0.20;0.20;;;;;;;16.11;100.00;75567.38;6247058;22;20006;-87
2023/12/01 02:53:15;;;;;;;0.20;0.20;;;;;;;16.24;100.00;75580.19;6272714;22;20170;-88
2023/12/01 02:55:41;;;;;;;0.20;0.20;;;;;;;16.14;100.00;75568.81;6247094;22;20003;-88
2023/12/01 02:58:06;;;;;;;0.30;0.30;;;;;;;15.95;100.00;75546.63;6246778;22;20497;-89
2023/12/01 03:00:33;;;;;;;0.20;0.20;;;;;;;16.10;100.00;75566.78;6247105;22;20093;-87
2023/12/01 03:02:59;;;;;;;0.20;0.20;;;;;;;15.91;99.83;75541.81;6246237;22;20000;-87
2023/12/01 03:05:24;;;;;;;0.20;0.20;;;;;;;16.08;99.45;75561.59;6271991;22;20070;-87
2023/12/01 03:07:50;;;;;;;0.20;0.20;;;;;;;15.92;98.77;75548.00;6271861;22;20004;-88
2023/12/01 03:10:16;;;;;;;0.20;0.20;;;;;;;16.01;100.00;75558.78;6246478;22;20000;-88
2023/12/01 03:12:43;;;;;;;0.20;0.20;;;;;;;16.04;100.00;75562.38;6272156;22;20447;-87
2023/12/01 03:15:19;;;;;;;0.20;0.20;;;;;;;15.83;99.90;75537.81;6273657;22;20078;-87
2023/12/01 03:17:45;;;;;;;0.20;0.20;;;;;;;15.66;100.00;75517.44;6271505;22;20022;-87
2023/12/01 03:20:11;;;;;;;0.20;0.20;;;;;;;15.67;100.00;75513.66;6273452;22;20062;-87
2023/12/01 03:22:38;;;;;;;0.20;0.20;;;;;;;15.58;100.00;75502.22;6272031;22;20003;-87
2023/12/01 03:25:09;;;;;;;0.20;0.20;;;;;;;15.63;100.00;75514.41;6273460;22;19995;-87
2023/12/01 03:27:36;;;;;;;0.20;0.20;;;;;;;15.69;98.40;75518.81;6246170;22;20008;-87
2023/12/01 03:30:02;;;;;;;0.20;0.20;;;;;;;15.76;97.32;75523.22;6273468;22;20065;-87
2023/12/01 03:32:28;;;;;;;0.20;0.20;;;;;;;15.92;95.98;75545.19;6273530;22;20041;-87
2023/12/01 03:34:53;;;;;;;0.20;0.20;;;;;;;16.05;95.58;75563.00;6246619;22;20086;-87
2023/12/01 03:37:18;;;;;;;0.20;0.20;;;;;;;16.11;96.52;75570.19;6246214;22;20000;-87
2023/12/01 03:39:44;;;;;;;0.22;0.22;;;;;;;16.48;94.63;75611.16;6275337;22;20399;-88
2023/12/01 03:42:09;;;;;;;0.20;0.20;;;;;;;16.29;94.52;75591.16;6248824;22;20015;-87
2023/12/01 03:44:35;;;;;;;0.20;0.20;;;;;;;16.07;95.91;75560.41;6248929;22;20010;-88
2023/12/01 03:47:00;;;;;;;0.20;0.20;;;;;;;15.97;97.46;75554.59;6248377;22;20313;-87
2023/12/01 03:49:26;;;;;;;0.20;0.20;;;;;;;16.05;98.64;75560.78;6275069;22;20008;-88
2023/12/01 03:51:54;;;;;;;0.25;0.25;;;;;;;15.86;99.25;75535.22;6275907;22;20489;-88
2023/12/01 03:54:20;;;;;;;0.20;0.20;;;;;;;15.91;99.79;75544.00;6248686;22;20007;-88
2023/12/01 03:56:45;;;;;;;0.20;0.20;;;;;;;15.98;100.00;75553.00;6248408;22;20004;-87
2023/12/01 03:59:11;;;;;;;0.20;0.20;;;;;;;16.11;100.00;75565.19;6248480;22;20057;-87
2023/12/01 04:01:38;;;;;;;0.20;0.20;;;;;;;16.03;100.00;75555.59;6273743;22;20309;-87
2023/12/01 04:04:04;;;;;;;0.20;0.20;;;;;;;16.13;99.78;75567.59;6248584;22;20004;-88
2023/12/01 04:06:30;;;;;;;0.20;0.20;;;;;;;16.07;99.51;75563.19;6248723;22;20000;-86
2023/12/01 04:08:55;;;;;;;0.20;0.20;;;;;;;16.01;100.00;75553.22;6274525;22;20011;-86
2023/12/01 04:11:24;;;;;;;0.20;0.20;;;;;;;16.02;100.00;75559.97;6275662;22;20325;-87
2023/12/01 04:13:50;;;;;;;0.20;0.20;;;;;;;16.03;100.00;75558.38;6248123;22;20436;-87
2023/12/01 04:16:15;;;;;;;0.20;0.20;;;;;;;15.94;100.00;75545.41;6247837;22;20114;-88
2023/12/01 04:18:45;;;;;;;0.20;0.20;;;;;;;16.01;100.00;75556.00;6248029;22;19999;-88
2023/12/01 04:21:10;;;;;;;0.20;0.20;;;;;;;16.06;100.00;75559.19;6247861;22;20004;-88
2023/12/01 04:23:36;;;;;;;0.20;0.20;;;;;;;15.93;100.00;75544.22;6273140;22;20055;-88
2023/12/01 04:26:02;;;;;;;0.20;0.20;;;;;;;15.82;100.00;75533.22;6247970;22;20079;-87
2023/12/01 04:28:27;;;;;;;0.20;0.20;;;;;;;15.91;100.00;75541.22;6273969;22;20008;-87
2023/12/01 04:30:53;;;;;;;0.20;0.20;;;;;;;16.12;100.00;75566.41;6248230;22;20079;-87
2023/12/01 04:33:19;;;;;;;0.20;0.20;;;;;;;15.90;100.00;75545.59;6247943;22;20450;-87
2023/12/01 04:35:44;;;;;;;0.20;0.20;;;;;;;15.97;100.00;75548.41;6247665;22;20443;-87
2023/12/01 04:38:12;;;;;;;0.20;0.20;;;;;;;15.63;100.00;75508.84;6274631;22;20007;-87
2023/12/01 04:40:38;;;;;;;0.20;0.20;;;;;;;15.75;100.00;75522.03;6247544;22;20004;-87
2023/12/01 04:43:03;;;;;;;0.20;0.20;;;;;;;15.73;100.00;75519.66;6247505;22;20324;-87
2023/12/01 04:45:35;;;;;;;0.20;0.20;;;;;;;15.80;100.00;75531.41;6273059;22;20008;-87
2023/12/01 04:48:01;;;;;;;0.20;0.20;;;;;;;15.55;100.00;75504.81;6272696;22;20015;-87
2023/12/01 04:50:29;;;;;;;0.20;0.20;;;;;;;16.04;100.00;75556.81;6247140;22;20239;-87
2023/12/01 04:52:56;;;;;;;0.20;0.20;;;;;;;15.79;100.00;75529.63;6274471;22;20411;-87
2023/12/01 04:55:26;;;;;;;0.20;0.20;;;;;;;15.75;100.00;75525.41;6273101;22;20008;-87
2023/12/01 04:57:52;;;;;;;0.20;0.20;;;;;;;15.61;100.00;75512.00;6274423;22;20130;-87
2023/12/01 05:00:23;;;;;;;0.20;0.20;;;;;;;15.76;100.00;75523.22;6247025;22;20391;-87
2023/12/01 05:02:58;;;;;;;0.20;0.20;;;;;;;15.80;100.00;75523.06;6247175;22;20033;-87
2023/12/01 05:05:26;;;;;;;0.20;0.20;;;;;;;15.93;100.00;75543.63;6274379;22;20306;-87
2023/12/01 05:07:57;;;;;;;0.20;0.20;;;;;;;15.74;99.03;75524.22;6272705;22;20003;-87
2023/12/01 05:10:24;;;;;;;0.20;0.20;;;;;;;15.79;99.00;75526.84;6272808;22;20085;-87
2023/12/01 05:12:54;;;;;;;0.20;0.20;;;;;;;15.78;99.08;75528.44;6272640;22;20090;-87
2023/12/01 05:15:25;;;;;;;0.20;0.20;;;;;;;15.79;98.47;75527.44;6247222;22;20078;-87
2023/12/01 05:17:55;;;;;;;0.20;0.20;;;;;;;15.79;98.43;75526.84;6272694;22;20019;-87
2023/12/01 05:20:23;;;;;;;0.20;0.20;;;;;;;16.02;97.32;75554.41;6272924;22;20074;-87
2023/12/01 05:22:56;;;;;;;0.20;0.20;;;;;;;15.71;98.00;75521.25;6274775;22;20058;-86
2023/12/01 05:25:25;;;;;;;0.30;0.30;;;;;;;16.06;96.44;75559.19;6274052;22;20075;-87
2023/12/01 05:27:58;;;;;;;0.20;0.20;;;;;;;15.97;97.20;75553.97;6247345;22;20012;-88
2023/12/01 05:30:29;;;;;;;0.20;0.20;;;;;;;15.98;96.98;75552.41;6274279;22;20000;-87
2023/12/01 05:32:56;;;;;;;0.20;0.20;;;;;;;15.61;97.78;75506.44;6272483;22;20000;-88
2023/12/01 05:35:21;;;;;;;0.20;0.20;;;;;;;15.87;97.06;75533.63;6246880;22;20428;-88
2023/12/01 05:37:49;;;;;;;0.20;0.20;;;;;;;15.84;92.80;75538.41;6247130;22;20065;-88
2023/12/01 05:43:39;;;;;;;0.20;0.20;;;;;;;16.18;85.67;75573.59;6278572;22;20069;-87
2023/12/01 05:46:06;;;;;;;0.20;0.20;;;;;;;16.43;82.80;75602.97;6247333;22;19995;-87
2023/12/01 05:48:33;;;;;;;0.20;0.20;;;;;;;16.55;82.15;75616.75;6272900;22;20443;-86
2023/12/01 05:50:59;;;;;;;0.20;0.20;;;;;;;16.52;82.75;75610.38;6249376;22;20083;-86
2023/12/01 05:53:25;;;;;;;0.20;0.20;;;;;;;16.50;81.52;75616.34;6225206;22;20361;-86
2023/12/01 05:55:51;;;;;;;0.20;0.20;;;;;;;16.59;81.89;75618.78;6247588;22;20010;-88
2023/12/01 05:58:16;;;;;;;0.20;0.20;;;;;;;16.50;83.40;75610.75;6247247;22;20340;-88
2023/12/01 06:00:44;;;;;;;0.20;0.20;;;;;;;16.27;83.66;75583.19;6246447;22;20007;-88
2023/12/01 06:03:14;;;;;;;0.20;0.20;;;;;;;16.51;82.19;75609.16;6272819;22;20003;-88
2023/12/01 06:05:39;;;;;;;0.20;0.20;;;;;;;16.58;80.42;75620.38;6247543;22;20023;-88
2023/12/01 06:11:27;;;;;;;0.20;0.20;;;;;;;16.77;77.19;75648.75;6290948;22;20054;-85
2023/12/01 06:13:53;;;;;;;0.20;0.20;;;;;;;16.63;79.27;75625.78;6222125;22;20008;-88
2023/12/01 06:16:19;;;;;;;0.20;0.20;;;;;;;16.90;76.68;75658.19;6247269;22;20057;-86
2023/12/01 06:18:44;;;;;;;0.20;0.20;;;;;;;16.95;75.81;75664.19;6274020;22;20023;-88
2023/12/01 06:21:10;;;;;;;0.20;0.20;;;;;;;16.96;76.94;75664.78;6246972;22;20008;-87
2023/12/01 06:23:35;;;;;;;0.20;0.20;;;;;;;16.87;77.17;75648.38;6246731;22;20086;-87
2023/12/01 06:26:01;;;;;;;0.20;0.20;;;;;;;17.10;74.53;75683.75;6246480;22;20443;-87
2023/12/01 06:28:30;;;;;;;0.20;0.20;;;;;;;17.02;76.57;75675.38;6274982;22;20003;-84
2023/12/01 06:30:56;;;;;;;0.20;0.20;;;;;;;16.98;77.95;75667.78;6247047;22;20014;-88
2023/12/01 06:33:21;;;;;;;0.20;0.20;;;;;;;17.02;80.25;75671.97;6246692;22;20031;-88
2023/12/01 06:35:47;;;;;;;0.20;0.20;;;;;;;17.25;80.31;75698.97;6247899;22;20335;-88
2023/12/01 06:38:12;;;;;;;0.20;0.20;;;;;;;17.06;79.43;75676.78;6247517;22;20022;-88
2023/12/01 06:40:39;;;;;;;0.20;0.20;;;;;;;17.57;76.85;75730.59;6246907;22;20007;-87
2023/12/01 06:43:10;;;;;;;0.20;0.20;;;;;;;18.11;72.73;75799.81;6247443;22;20004;-87
2023/12/01 06:45:37;;;;;;;0.20;0.20;;;;;;;18.38;69.35;75826.66;6247147;22;20348;-87
2023/12/01 06:48:02;;;;;;;0.20;0.20;;;;;;;18.65;62.21;75864.09;6246452;22;20118;-87
2023/12/01 06:50:29;;;;;;;0.20;0.20;;;;;;;18.77;60.36;75877.91;6272559;22;20011;-86
2023/12/01 06:52:54;;;;;;;0.20;0.20;;;;;;;19.10;58.52;75920.34;6246412;22;20481;-88
2023/12/01 06:55:20;;;;;;;0.20;0.20;;;;;;;18.64;60.25;75853.84;6246554;22;20190;-87
2023/12/01 06:57:49;;;;;;;0.20;0.20;;;;;;;18.40;60.58;75834.06;6272027;22;20011;-88
2023/12/01 07:02:56;;;;;;;0.20;0.20;;;;;;;18.16;62.02;75803.03;6275288;22;20172;-87
2023/12/01 07:05:26;;;;;;;0.20;0.20;;;;;;;18.55;62.46;75852.06;6273588;22;20132;-87
2023/12/01 07:07:52;;;;;;;0.20;0.20;;;;;;;18.59;63.28;75857.47;6271829;22;20035;-87
2023/12/01 07:10:18;;;;;;;0.20;0.20;;;;;;;18.89;62.55;75889.53;6271808;22;20159;-87
2023/12/01 07:12:43;;;;;;;0.20;0.20;;;;;;;19.05;64.22;75908.13;6246791;22;20009;-87
2023/12/01 07:15:11;;;;;;;0.20;0.20;;;;;;;19.28;65.11;75935.78;6274053;22;20095;-87
2023/12/01 07:17:40;;;;;;;0.20;0.20;;;;;;;19.20;61.83;75926.16;6247954;22;19999;-87
2023/12/01 07:20:15;;;;;;;0.20;0.20;;;;;;;19.63;57.91;75982.25;6273806;22;20000;-87
2023/12/01 07:22:42;;;;;;;0.20;0.20;;;;;;;20.24;56.26;76048.78;6273602;22;20077;-87
2023/12/01 07:25:10;;;;;;;0.20;0.20;;;;;;;21.04;52.70;76143.19;6273983;22;20011;-86
2023/12/01 07:27:37;;;;;;;0.20;0.20;;;;;;;20.63;53.83;76091.69;6248210;22;20008;-86
2023/12/01 07:30:06;;;;;;;0.20;0.20;;;;;;;20.30;54.89;76061.59;6273948;22;20349;-87
2023/12/01 07:32:32;;;;;;;0.20;0.20;;;;;;;20.01;56.02;76027.34;6273881;22;20004;-86
2023/12/01 07:34:58;;;;;;;0.20;0.20;;;;;;;20.29;56.33;76051.97;6275170;22;20053;-86
2023/12/01 07:37:23;;;;;;;0.20;0.20;;;;;;;19.92;59.05;76013.09;6247906;22;20370;-87
2023/12/01 07:39:49;;;;;;;0.20;0.20;;;;;;;19.83;59.60;76002.91;6273814;22;20011;-87
2023/12/01 07:42:15;;;;;;;0.20;0.20;;;;;;;19.91;60.04;76011.91;6273380;22;20011;-86
2023/12/01 07:44:41;;;;;;;0.20;0.20;;;;;;;19.85;60.33;76003.09;6247966;22;20094;-86
2023/12/01 07:47:08;;;;;;;0.20;0.20;;;;;;;19.26;62.84;75938.97;6274823;22;20034;-87
2023/12/01 07:49:34;;;;;;;0.20;0.20;;;;;;;19.58;64.65;75971.22;6247799;22;20019;-86
2023/12/01 07:52:02;;;;;;;0.20;0.20;;;;;;;19.17;63.81;75928.16;6275283;22;20014;-88
2023/12/01 07:54:28;;;;;;;0.20;0.20;;;;;;;19.44;63.45;75957.22;6251729;22;20007;-87
2023/12/01 07:56:53;;;;;;;0.20;0.20;;;;;;;19.09;63.68;75915.75;6248370;22;20095;-87
2023/12/01 07:59:21;;;;;;;0.20;0.20;;;;;;;19.03;65.22;75902.94;6248369;22;20451;-87
2023/12/01 08:01:47;;;;;;;0.20;0.20;;;;;;;19.13;66.41;75917.75;6248780;22;20051;-87
2023/12/01 08:04:13;;;;;;;0.25;0.25;;;;;;;18.96;66.10;75897.94;6247888;22;20004;-88
2023/12/01 08:06:39;;;;;;;0.20;0.20;;;;;;;18.86;64.46;75885.94;6275036;22;20030;-88
2023/12/01 08:09:04;;;;;;;0.20;0.20;;;;;;;18.98;64.34;75905.94;6273481;22;20432;-88
2023/12/01 08:11:30;;;;;;;0.20;0.20;;;;;;;18.76;63.99;75874.50;6248179;22;19999;-88
2023/12/01 08:13:55;;;;;;;0.28;0.28;;;;;;;18.98;59.35;75899.75;6275245;22;19995;-88
2023/12/01 08:16:21;;;;;;;0.20;0.20;;;;;;;19.02;57.95;75907.94;6247842;22;20423;-87
2023/12/01 08:18:46;;;;;;;0.20;0.20;;;;;;;19.19;57.01;75924.97;6247869;22;20016;-86
2023/12/01 08:21:14;;;;;;;0.20;0.20;;;;;;;19.21;55.16;75927.38;6248315;22;20039;-87
2023/12/01 08:23:40;;;;;;;0.20;0.20;;;;;;;19.42;54.20;75951.41;6248157;22;20069;-87
2023/12/01 08:26:08;;;;;;;0.20;0.20;;;;;;;19.46;55.41;75956.22;6247565;22;20008;-86
2023/12/01 08:28:34;;;;;;;0.20;0.20;;;;;;;19.14;55.19;75916.16;6275562;22;20000;-88
2023/12/01 08:30:59;;;;;;;0.20;0.20;;;;;;;19.15;56.38;75922.34;6273708;22;20010;-86
2023/12/01 08:33:24;;;;;;;0.20;0.20;;;;;;;19.07;58.03;75913.34;6275173;22;20022;-86
2023/12/01 08:35:50;;;;;;;0.20;0.20;;;;;;;19.08;57.76;75914.56;6273479;22;20348;-87
2023/12/01 08:38:15;;;;;;;0.20;0.20;;;;;;;19.16;53.98;75924.16;6276603;22;20031;-86
2023/12/01 08:40:41;;;;;;;0.20;0.20;;;;;;;19.25;53.66;75932.16;6279124;22;20000;-86
2023/12/01 08:43:06;;;;;;;0.20;0.20;;;;;;;19.45;54.67;75955.00;6252208;22;20250;-86
2023/12/01 08:45:32;;;;;;;0.20;0.20;;;;;;;19.31;55.28;75938.78;6273241;22;20082;-87
2023/12/01 08:47:58;;;;;;;0.20;0.20;;;;;;;19.33;53.75;75941.16;6272884;22;20026;-86
2023/12/01 08:50:23;;;;;;;0.20;0.20;;;;;;;19.35;53.75;75947.00;6247525;22;20035;-88
2023/12/01 08:52:48;;;;;;;0.20;0.20;;;;;;;19.26;54.17;75933.38;6247730;22;19996;-88
2023/12/01 08:55:14;;;;;;;0.20;0.20;;;;;;;19.86;52.70;76004.28;6247567;22;20444;-87
2023/12/01 08:57:39;;;;;;;0.20;0.20;;;;;;;20.06;53.38;76027.13;6272857;22;20038;-87
2023/12/01 09:00:06;;;;;;;0.20;0.20;;;;;;;19.84;53.66;76004.69;6273255;22;20000;-87
2023/12/01 09:02:32;;;;;;;0.20;0.20;;;;;;;19.62;52.92;75978.84;6247376;22;20308;-87
2023/12/01 09:05:01;;;;;;;0.20;0.20;;;;;;;19.77;51.16;75985.06;6272816;22;20071;-86
2023/12/01 09:07:27;;;;;;;0.20;0.20;;;;;;;19.70;49.44;75982.25;6272890;22;20015;-88
2023/12/01 09:09:52;;;;;;;0.20;0.20;;;;;;;19.85;49.11;76005.91;6247391;22;20018;-87
2023/12/01 09:12:17;;;;;;;0.20;0.20;;;;;;;20.21;47.87;76047.97;6273330;22;20428;-87
2023/12/01 09:14:43;;;;;;;0.20;0.20;;;;;;;20.93;46.60;76129.94;6273140;22;20004;-87
2023/12/01 09:17:08;;;;;;;0.20;0.20;;;;;;;21.03;45.98;76141.38;6247544;22;20027;-86
2023/12/01 09:19:34;;;;;;;0.20;0.20;;;;;;;21.25;45.05;76170.66;6274372;22;20000;-87
2023/12/01 09:21:59;;;;;;;0.20;0.20;;;;;;;21.47;44.43;76195.97;6247696;22;20123;-86
2023/12/01 09:24:24;;;;;;;0.20;0.20;;;;;;;21.61;43.66;76207.75;6247480;22;20008;-86
2023/12/01 09:26:50;;;;;;;0.20;0.20;;;;;;;21.62;43.87;76206.16;6247379;22;20091;-86
2023/12/01 09:29:16;;;;;;;0.20;0.20;;;;;;;21.88;44.04;76241.88;6247273;22;20070;-86
2023/12/01 09:31:46;;;;;;;0.20;0.20;;;;;;;21.48;43.78;76192.13;6247493;22;20424;-86
2023/12/01 09:34:12;;;;;;;0.20;0.20;;;;;;;21.13;44.56;76151.19;6272263;22;20057;-86
2023/12/01 09:36:38;;;;;;;0.20;0.20;;;;;;;20.65;45.55;76094.06;6272639;22;20082;-87
2023/12/01 09:39:04;;;;;;;0.20;0.20;;;;;;;20.55;46.24;76084.84;6247644;22;20305;-86
2023/12/01 09:41:33;;;;;;;0.20;0.20;;;;;;;20.07;46.01;76028.34;6248212;22;20004;-87
2023/12/01 09:44:00;;;;;;;0.20;0.20;;;;;;;19.89;47.46;76005.09;6247355;22;20004;-87
2023/12/01 09:46:34;;;;;;;0.20;0.20;;;;;;;19.66;47.34;75980.28;6274118;22;20006;-87
2023/12/01 09:49:00;;;;;;;0.20;0.20;;;;;;;19.52;47.64;75966.81;6246589;22;20448;-87
2023/12/01 09:51:25;;;;;;;0.20;0.20;;;;;;;19.65;45.58;75978.44;6247067;22;20035;-86
2023/12/01 09:53:50;;;;;;;0.20;0.20;;;;;;;19.72;46.52;75987.47;6246938;22;19991;-87
2023/12/01 09:56:18;;;;;;;0.20;0.20;;;;;;;19.71;47.03;75988.47;6272743;22;20054;-87
2023/12/01 09:58:44;;;;;;;0.20;0.20;;;;;;;19.73;46.37;75985.28;6246931;22;20370;-88
2023/12/01 10:01:10;;;;;;;0.20;0.20;;;;;;;19.62;46.63;75978.84;6274221;22;20420;-88
2023/12/01 10:03:35;;;;;;;0.20;0.20;;;;;;;19.50;46.80;75963.81;6246830;22;20086;-87
2023/12/01 10:06:01;;;;;;;0.20;0.20;;;;;;;19.53;46.36;75961.81;6247350;22;20010;-85
2023/12/01 10:08:27;;;;;;;0.20;0.20;;;;;;;19.65;46.96;75981.84;6247212;22;20277;-87
2023/12/01 10:10:53;;;;;;;0.20;0.20;;;;;;;19.75;46.89;75993.88;6247225;22;20498;-87
2023/12/01 10:13:20;;;;;;;0.20;0.20;;;;;;;19.82;46.67;76002.31;6246800;22;20004;-87
2023/12/01 10:15:47;;;;;;;0.20;0.20;;;;;;;19.84;46.65;76004.69;6247471;22;20007;-86
2023/12/01 10:18:19;;;;;;;0.20;0.20;;;;;;;19.92;47.10;76010.28;6273898;22;20012;-88
2023/12/01 10:21:07;;;;;;;0.20;0.20;;;;;;;19.91;48.65;76009.69;6244830;22;20732;-87
2023/12/01 10:23:36;;;;;;;0.20;0.20;;;;;;;19.84;49.59;75998.47;6242924;22;20046;-88
2023/12/01 10:26:06;;;;;;;0.20;0.20;;;;;;;19.57;50.57;75969.41;6269738;22;20474;-88
2023/12/01 10:28:40;;;;;;;0.20;0.20;;;;;;;19.62;50.47;75972.66;6270441;22;20007;-88
2023/12/01 10:31:06;;;;;;;0.20;0.20;;;;;;;19.81;49.85;75995.47;6269041;22;20019;-87
2023/12/01 10:33:35;;;;;;;0.20;0.20;;;;;;;19.68;50.83;75984.88;6270061;22;20014;-88
2023/12/01 10:36:05;;;;;;;0.20;0.20;;;;;;;19.55;51.42;75967.63;6242961;22;20054;-88
2023/12/01 10:38:33;;;;;;;0.20;0.20;;;;;;;19.78;51.76;75994.69;6270490;22;20019;-88
2023/12/01 10:41:00;;;;;;;0.20;0.20;;;;;;;19.56;50.94;75968.81;6270439;22;20006;-88
2023/12/01 10:43:27;;;;;;;0.25;0.25;;;;;;;19.67;49.77;75983.66;6269071;22;20030;-88
2023/12/01 10:45:53;;;;;;;0.20;0.20;;;;;;;19.56;49.97;75965.41;6242896;22;20015;-89
2023/12/01 10:48:20;;;;;;;0.20;0.20;;;;;;;19.72;49.98;75986.88;6269526;22;20069;-88
2023/12/01 10:50:50;;;;;;;0.20;0.20;;;;;;;19.68;50.44;75979.25;6267770;22;20007;-88
2023/12/01 10:53:16;;;;;;;0.20;0.20;;;;;;;19.54;50.03;75968.63;6242549;22;20019;-87
2023/12/01 10:55:46;;;;;;;0.20;0.20;;;;;;;19.59;51.56;75969.03;6267097;22;20007;-87
2023/12/01 10:58:21;;;;;;;0.25;0.25;;;;;;;19.20;52.92;75928.38;6242686;22;20000;-88
2023/12/01 11:00:49;;;;;;;0.20;0.20;;;;;;;19.30;53.61;75935.38;6242647;22;20004;-88
2023/12/01 11:03:25;;;;;;;0.20;0.20;;;;;;;19.37;53.39;75943.19;6242616;22;20007;-88
2023/12/01 11:06:01;;;;;;;0.20;0.20;;;;;;;19.34;53.59;75945.78;6242214;22;20019;-88
2023/12/01 11:08:51;;;;;;;0.20;0.20;;;;;;;19.48;53.30;75961.41;6268968;22;20432;-87
2023/12/01 11:11:28;;;;;;;0.20;0.20;;;;;;;19.15;53.58;75920.16;6270352;22;20073;-88
2023/12/01 11:14:21;;;;;;;0.20;0.20;;;;;;;19.42;53.71;75949.19;6277176;22;20004;-88
2023/12/01 11:16:48;;;;;;;0.20;0.20;;;;;;;19.67;53.78;75983.66;6245981;22;20062;-88
2023/12/01 11:19:21;;;;;;;0.20;0.20;;;;;;;19.54;53.09;75963.59;6272539;22;20003;-88
2023/12/01 11:21:56;;;;;;;0.20;0.20;;;;;;;19.48;53.00;75959.19;6248085;22;20008;-88
2023/12/01 11:24:23;;;;;;;0.20;0.20;;;;;;;19.63;52.93;75976.66;6272890;22;20000;-87
2023/12/01 11:26:51;;;;;;;0.20;0.20;;;;;;;20.10;52.07;76029.13;6272040;22;20344;-88
2023/12/01 11:29:33;;;;;;;0.20;0.20;;;;;;;20.08;52.55;76026.72;6273836;22;20436;-88
2023/12/01 11:31:59;;;;;;;0.20;0.20;;;;;;;20.24;52.72;76045.34;6247455;22;20503;-88
2023/12/01 11:34:27;;;;;;;0.20;0.20;;;;;;;20.40;52.21;76068.03;6246923;22;20085;-88
2023/12/01 11:36:53;;;;;;;0.20;0.20;;;;;;;20.43;51.93;76073.81;6247242;22;20019;-88
2023/12/01 11:39:32;;;;;;;0.20;0.20;;;;;;;20.57;51.70;76084.47;6247351;22;20008;-85
2023/12/01 11:41:57;;;;;;;0.20;0.20;;;;;;;20.64;51.83;76093.47;6246780;22;20086;-85
2023/12/01 11:44:40;;;;;;;0.20;0.20;;;;;;;20.71;52.01;76100.69;6272450;22;20008;-85
2023/12/01 11:47:08;;;;;;;0.10;0.10;;;;;;;20.56;52.25;76083.25;6272273;22;20507;-85
2023/12/01 11:49:44;;;;;;;0.20;0.20;;;;;;;20.33;51.57;76056.78;6273738;22;20440;-85
2023/12/01 11:52:13;;;;;;;0.20;0.20;;;;;;;19.99;52.16;76018.72;6246766;22;20000;-88
2023/12/01 11:54:38;;;;;;;0.20;0.20;;;;;;;20.21;51.72;76050.78;6272312;22;20455;-88
2023/12/01 11:57:14;;;;;;;0.20;0.20;;;;;;;20.35;51.46;76064.22;6272981;22;20008;-88
2023/12/01 11:59:39;;;;;;;0.20;0.20;;;;;;;20.34;51.50;76057.97;6247690;22;20004;-88
2023/12/01 12:02:05;;;;;;;0.20;0.20;;;;;;;19.97;51.79;76013.50;6249160;22;20456;-88